Time;durP1;ratioP1;P1;durP2;ratioP2;P2;SDS_P1;SDS_P2;PMS_P1;PMS_P2;Temp;Humidity;BMP_temperature;BMP_pressure;BME280_temperature;BME280_humidity;BME280_pressure;Samples;Min_cycle;Max_cycle;Signal;HPM_P1;HPM_P2
2023/11/07 00:00:22;;;;;;;;;;;20.20;61.30;;;;;;1578746;74;1940;-60
2023/11/07 00:02:24;;;;;;;;;;;20.20;61.40;;;;;;1580792;74;1148;-60
2023/11/07 00:04:25;;;;;;;;;;;20.20;61.30;;;;;;1581517;74;688;-60
2023/11/07 00:06:27;;;;;;;;;;;20.30;61.50;;;;;;1573663;74;767;-61
2023/11/07 00:08:29;;;;;;;;;;;20.30;61.60;;;;;;1536507;75;694;-61
2023/11/07 00:10:32;;;;;;;;;;;20.20;61.50;;;;;;1546715;76;763;-61
2023/11/07 00:12:34;;;;;;;;;;;20.20;61.40;;;;;;1582721;74;1696;-60
2023/11/07 00:14:36;;;;;;;;;;;20.20;61.40;;;;;;1574799;74;819;-60
2023/11/07 00:16:39;;;;;;;;;;;20.20;61.50;;;;;;1579241;74;749;-61
2023/11/07 00:18:41;;;;;;;;;;;20.20;61.50;;;;;;1586132;74;810;-60
2023/11/07 00:20:43;;;;;;;;;;;20.20;61.50;;;;;;1588028;74;1909;-61
2023/11/07 00:22:44;;;;;;;;;;;20.20;61.50;;;;;;1575117;74;1145;-61
2023/11/07 00:24:47;;;;;;;;;;;20.20;61.40;;;;;;1586585;74;1520;-61
2023/11/07 00:26:49;;;;;;;;;;;20.20;61.40;;;;;;1528313;76;720;-60
2023/11/07 00:28:51;;;;;;;;;;;20.20;61.50;;;;;;1586369;74;790;-61
2023/11/07 00:30:52;;;;;;;;;;;20.20;61.50;;;;;;1546669;75;869;-60
2023/11/07 00:32:54;;;;;;;;;;;20.20;61.50;;;;;;1517993;77;1139;-60
2023/11/07 00:34:56;;;;;;;;;;;20.20;61.40;;;;;;1531675;76;698;-61
2023/11/07 00:36:58;;;;;;;;;;;20.20;61.40;;;;;;1545786;76;721;-61
2023/11/07 00:39:00;;;;;;;;;;;20.20;61.50;;;;;;1581335;74;1524;-60
2023/11/07 00:41:03;;;;;;;;;;;20.20;61.40;;;;;;1583519;73;1892;-60
2023/11/07 00:43:05;;;;;;;;;;;20.20;61.40;;;;;;1580274;74;1136;-61
2023/11/07 00:45:08;;;;;;;;;;;20.30;61.50;;;;;;1578187;74;795;-60
2023/11/07 00:47:10;;;;;;;;;;;20.30;61.50;;;;;;1547158;75;853;-61
2023/11/07 00:49:12;;;;;;;;;;;20.20;61.40;;;;;;1508427;77;749;-61
2023/11/07 00:51:14;;;;;;;;;;;20.20;61.50;;;;;;1581928;73;772;-60
2023/11/07 00:53:16;;;;;;;;;;;20.20;61.60;;;;;;1585660;74;1602;-61
2023/11/07 00:55:18;;;;;;;;;;;20.20;61.40;;;;;;1579219;74;677;-60
2023/11/07 00:57:19;;;;;;;;;;;20.30;61.60;;;;;;1584516;74;778;-61
2023/11/07 00:59:21;;;;;;;;;;;20.30;61.60;;;;;;1581514;74;683;-60
2023/11/07 01:01:24;;;;;;;;;;;20.20;61.50;;;;;;1582822;74;1948;-61
2023/11/07 01:03:26;;;;;;;;;;;20.30;61.60;;;;;;1575017;74;769;-60
2023/11/07 01:05:28;;;;;;;;;;;20.30;61.60;;;;;;1577404;74;658;-61
2023/11/07 01:07:30;;;;;;;;;;;20.20;61.60;;;;;;1587187;74;1530;-61
2023/11/07 01:09:32;;;;;;;;;;;20.20;61.60;;;;;;1587379;74;626;-61
2023/11/07 01:11:34;;;;;;;;;;;20.20;61.50;;;;;;1580293;73;1163;-60
2023/11/07 01:13:35;;;;;;;;;;;20.20;61.50;;;;;;1583871;74;845;-60
2023/11/07 01:15:37;;;;;;;;;;;20.30;61.60;;;;;;1588000;74;768;-61
2023/11/07 01:17:39;;;;;;;;;;;20.20;61.60;;;;;;1576941;74;695;-60
2023/11/07 01:19:41;;;;;;;;;;;20.20;61.60;;;;;;1587176;74;778;-60
2023/11/07 01:21:43;;;;;;;;;;;20.20;61.70;;;;;;1581727;74;1522;-60
2023/11/07 01:23:45;;;;;;;;;;;20.20;61.60;;;;;;1575114;74;707;-61
2023/11/07 01:25:47;;;;;;;;;;;20.20;61.70;;;;;;1576411;74;815;-60
2023/11/07 01:27:49;;;;;;;;;;;20.20;61.80;;;;;;1585603;74;752;-60
2023/11/07 01:29:51;;;;;;;;;;;20.20;61.70;;;;;;1582422;74;681;-61
2023/11/07 01:31:53;;;;;;;;;;;20.20;61.70;;;;;;1583229;73;1184;-62
2023/11/07 01:33:55;;;;;;;;;;;20.20;61.70;;;;;;1583857;74;690;-61
2023/11/07 01:35:57;;;;;;;;;;;20.20;61.90;;;;;;1584524;74;1523;-61
2023/11/07 01:37:59;;;;;;;;;;;20.30;62.00;;;;;;1581904;74;750;-61
2023/11/07 01:40:01;;;;;;;;;;;20.20;61.90;;;;;;1578302;74;1926;-61
2023/11/07 01:42:03;;;;;;;;;;;20.20;62.00;;;;;;1579334;74;1136;-61
2023/11/07 01:44:05;;;;;;;;;;;20.20;62.00;;;;;;1583737;74;688;-60
2023/11/07 01:46:07;;;;;;;;;;;20.30;62.10;;;;;;1577288;74;732;-60
2023/11/07 01:48:09;;;;;;;;;;;20.30;62.20;;;;;;1578687;74;699;-60
2023/11/07 01:50:12;;;;;;;;;;;20.20;62.00;;;;;;1579121;74;1510;-60
2023/11/07 01:52:14;;;;;;;;;;;20.20;62.00;;;;;;1578789;74;1143;-60
2023/11/07 01:54:16;;;;;;;;;;;20.20;61.80;;;;;;1575523;74;753;-60
2023/11/07 01:56:19;;;;;;;;;;;20.20;61.80;;;;;;1582554;74;807;-60
2023/11/07 01:58:21;;;;;;;;;;;20.30;61.80;;;;;;1579468;74;696;-61
2023/11/07 02:00:22;;;;;;;;;;;20.20;61.80;;;;;;1577338;74;1944;-60
2023/11/07 02:02:24;;;;;;;;;;;20.20;61.70;;;;;;1579207;74;1200;-61
2023/11/07 02:04:26;;;;;;;;;;;20.20;61.70;;;;;;1586790;74;1370;-60
2023/11/07 02:06:28;;;;;;;;;;;20.20;61.60;;;;;;1579994;74;728;-61
2023/11/07 02:08:31;;;;;;;;;;;20.20;61.60;;;;;;1585712;74;740;-61
2023/11/07 02:10:33;;;;;;;;;;;20.30;61.70;;;;;;1584514;73;737;-60
2023/11/07 02:12:35;;;;;;;;;;;20.20;61.50;;;;;;1583364;74;1136;-60
2023/11/07 02:14:39;;;;;;;;;;;20.20;61.50;;;;;;1585135;74;867;-60
2023/11/07 02:16:40;;;;;;;;;;;20.20;61.50;;;;;;1579288;74;1638;-60
2023/11/07 02:18:42;;;;;;;;;;;20.20;61.60;;;;;;1580928;74;1540;-60
2023/11/07 02:20:45;;;;;;;;;;;20.20;61.70;;;;;;1538481;75;1921;-60
2023/11/07 02:22:58;;;;;;;;;;;20.20;61.80;;;;;;1546691;76;1264;-60
2023/11/07 02:25:00;;;;;;;;;;;20.20;61.80;;;;;;1546224;76;1885;-60
2023/11/07 02:27:02;;;;;;;;;;;20.30;61.80;;;;;;1553214;76;712;-61
2023/11/07 02:29:05;;;;;;;;;;;20.20;61.70;;;;;;1580996;74;1225;-61
2023/11/07 02:31:08;;;;;;;;;;;20.20;61.80;;;;;;1516613;77;732;-60
2023/11/07 02:33:10;;;;;;;;;;;20.20;61.70;;;;;;1516888;77;1588;-60
2023/11/07 02:35:11;;;;;;;;;;;20.30;61.70;;;;;;1542797;75;805;-60
2023/11/07 02:37:13;;;;;;;;;;;20.20;61.60;;;;;;1582420;74;794;-61
2023/11/07 02:39:15;;;;;;;;;;;20.20;61.60;;;;;;1578771;74;711;-60
2023/11/07 02:41:17;;;;;;;;;;;20.20;61.60;;;;;;1578614;73;1931;-61
2023/11/07 02:43:19;;;;;;;;;;;20.20;61.60;;;;;;1577146;74;677;-60
2023/11/07 02:45:22;;;;;;;;;;;20.20;61.60;;;;;;1579726;74;1545;-61
2023/11/07 02:47:24;;;;;;;;;;;20.20;61.60;;;;;;1573728;74;801;-60
2023/11/07 02:49:26;;;;;;;;;;;20.20;61.60;;;;;;1583103;74;706;-60
2023/11/07 02:51:28;;;;;;;;;;;20.30;61.70;;;;;;1583875;73;1152;-60
2023/11/07 02:53:30;;;;;;;;;;;20.20;61.60;;;;;;1574061;74;753;-58
2023/11/07 02:55:32;;;;;;;;;;;20.20;61.60;;;;;;1576594;74;674;-59
2023/11/07 02:57:34;;;;;;;;;;;20.20;61.60;;;;;;1576825;74;724;-59
2023/11/07 02:59:37;;;;;;;;;;;20.20;61.60;;;;;;1584663;74;1568;-58
2023/11/07 03:01:39;;;;;;;;;;;20.20;61.80;;;;;;1574586;74;1918;-61
2023/11/07 03:03:42;;;;;;;;;;;20.20;61.70;;;;;;1574325;74;759;-60
2023/11/07 03:05:44;;;;;;;;;;;20.20;61.80;;;;;;1579904;74;680;-60
2023/11/07 03:07:46;;;;;;;;;;;20.20;61.90;;;;;;1577019;74;714;-58
2023/11/07 03:09:48;;;;;;;;;;;20.20;61.90;;;;;;1574892;74;730;-59
2023/11/07 03:11:50;;;;;;;;;;;20.20;62.00;;;;;;1578024;74;1117;-60
2023/11/07 03:13:52;;;;;;;;;;;20.20;62.00;;;;;;1586194;74;1516;-60
2023/11/07 03:15:54;;;;;;;;;;;20.20;62.10;;;;;;1577921;74;810;-58
2023/11/07 03:17:56;;;;;;;;;;;20.20;62.20;;;;;;1584105;74;821;-60
2023/11/07 03:19:58;;;;;;;;;;;20.20;62.20;;;;;;1575606;74;748;-59
2023/11/07 03:22:00;;;;;;;;;;;20.20;62.30;;;;;;1589529;73;1930;-58
2023/11/07 03:24:03;;;;;;;;;;;20.30;62.40;;;;;;1576545;74;703;-58
2023/11/07 03:26:05;;;;;;;;;;;20.20;62.30;;;;;;1584019;74;846;-60
2023/11/07 03:28:08;;;;;;;;;;;20.30;62.50;;;;;;1582499;74;1486;-59
2023/11/07 03:30:10;;;;;;;;;;;20.30;62.40;;;;;;1580855;74;783;-59
2023/11/07 03:32:12;;;;;;;;;;;20.30;62.10;;;;;;1583440;74;1139;-59
2023/11/07 03:34:14;;;;;;;;;;;20.30;62.00;;;;;;1580853;74;787;-60
2023/11/07 03:36:16;;;;;;;;;;;20.30;62.00;;;;;;1536621;75;749;-60
2023/11/07 03:38:17;;;;;;;;;;;20.30;61.90;;;;;;1587305;74;832;-60
2023/11/07 03:40:20;;;;;;;;;;;20.30;61.90;;;;;;1581497;74;728;-60
2023/11/07 03:42:22;;;;;;;;;;;20.30;61.70;;;;;;1583868;74;1919;-59
2023/11/07 03:44:24;;;;;;;;;;;20.30;61.60;;;;;;1582148;74;897;-60
2023/11/07 03:46:25;;;;;;;;;;;20.30;61.40;;;;;;1572630;74;700;-59
2023/11/07 03:48:27;;;;;;;;;;;20.30;61.20;;;;;;1581541;74;657;-58
2023/11/07 03:50:30;;;;;;;;;;;20.30;61.80;;;;;;1586969;74;812;-59
2023/11/07 03:52:32;;;;;;;;;;;20.30;61.70;;;;;;1574071;74;1120;-60
2023/11/07 03:54:34;;;;;;;;;;;20.40;61.70;;;;;;1577436;74;699;-59
2023/11/07 03:56:36;;;;;;;;;;;20.40;61.70;;;;;;1575721;74;1562;-59
2023/11/07 03:58:38;;;;;;;;;;;20.40;61.80;;;;;;1587470;74;697;-59
2023/11/07 04:00:45;;;;;;;;;;;20.30;61.80;;;;;;1574254;74;760;-59
2023/11/07 04:02:43;;;;;;;;;;;20.40;61.90;;;;;;1579665;73;1601;-60
2023/11/07 04:04:46;;;;;;;;;;;20.40;61.90;;;;;;1585632;74;673;-60
2023/11/07 04:06:51;;;;;;;;;;;20.40;61.90;;;;;;1548776;75;678;-61
2023/11/07 04:08:53;;;;;;;;;;;20.40;62.00;;;;;;1523684;76;678;-61
2023/11/07 04:10:55;;;;;;;;;;;20.40;62.00;;;;;;1579078;73;1557;-61
2023/11/07 04:12:56;;;;;;;;;;;20.40;62.00;;;;;;1579586;74;1137;-61
2023/11/07 04:14:58;;;;;;;;;;;20.40;62.10;;;;;;1581755;74;790;-61
2023/11/07 04:17:03;;;;;;;;;;;20.40;62.10;;;;;;1579049;74;741;-60
2023/11/07 04:19:04;;;;;;;;;;;20.50;62.20;;;;;;1544784;75;1464;-61
2023/11/07 04:21:07;;;;;;;;;;;20.40;62.20;;;;;;1545292;75;1942;-61
2023/11/07 04:23:09;;;;;;;;;;;20.40;62.30;;;;;;1543676;75;1177;-61
2023/11/07 04:25:11;;;;;;;;;;;20.40;62.30;;;;;;1543993;75;1563;-62
2023/11/07 04:27:14;;;;;;;;;;;20.40;62.30;;;;;;1528415;77;667;-62
2023/11/07 04:29:16;;;;;;;;;;;20.40;62.40;;;;;;1523459;77;747;-61
2023/11/07 04:31:18;;;;;;;;;;;20.50;62.40;;;;;;1575297;74;1160;-61
2023/11/07 04:33:21;;;;;;;;;;;20.40;62.40;;;;;;1575402;74;682;-61
2023/11/07 04:35:22;;;;;;;;;;;20.40;62.50;;;;;;1575225;74;747;-62
2023/11/07 04:37:24;;;;;;;;;;;20.50;62.60;;;;;;1576358;74;752;-61
2023/11/07 04:39:26;;;;;;;;;;;20.40;62.50;;;;;;1581267;74;1288;-61
2023/11/07 04:41:28;;;;;;;;;;;20.50;62.60;;;;;;1584406;74;1950;-62
2023/11/07 04:43:35;;;;;;;;;;;20.40;62.70;;;;;;1525909;76;757;-61
2023/11/07 04:45:34;;;;;;;;;;;20.50;62.70;;;;;;1558007;75;1657;-62
2023/11/07 04:47:36;;;;;;;;;;;20.50;62.80;;;;;;1551541;75;745;-62
2023/11/07 04:49:38;;;;;;;;;;;20.50;62.80;;;;;;1543388;75;844;-62
2023/11/07 04:51:40;;;;;;;;;;;20.50;62.90;;;;;;1578438;73;1147;-61
2023/11/07 04:53:44;;;;;;;;;;;20.50;62.80;;;;;;1584112;74;1653;-62
2023/11/07 04:55:46;;;;;;;;;;;20.40;62.90;;;;;;1581498;74;1512;-61
2023/11/07 04:57:53;;;;;;;;;;;20.40;63.00;;;;;;1578312;74;811;-61
2023/11/07 04:59:52;;;;;;;;;;;20.50;62.80;;;;;;1572453;74;1884;-61
2023/11/07 05:01:54;;;;;;;;;;;20.40;62.80;;;;;;1582268;74;1944;-61
2023/11/07 05:03:57;;;;;;;;;;;20.40;62.90;;;;;;1575807;74;732;-61
2023/11/07 05:05:59;;;;;;;;;;;20.40;63.10;;;;;;1580069;74;1542;-61
2023/11/07 05:08:01;;;;;;;;;;;20.50;63.00;;;;;;1585785;74;747;-62
2023/11/07 05:10:04;;;;;;;;;;;20.50;63.10;;;;;;1575315;74;737;-61
2023/11/07 05:12:06;;;;;;;;;;;20.50;63.20;;;;;;1578396;74;1087;-60
2023/11/07 05:14:08;;;;;;;;;;;20.50;63.10;;;;;;1585642;74;803;-60
2023/11/07 05:16:10;;;;;;;;;;;20.50;63.10;;;;;;1582763;74;774;-61
2023/11/07 05:18:12;;;;;;;;;;;20.50;63.00;;;;;;1572298;74;715;-60
2023/11/07 05:20:15;;;;;;;;;;;20.50;63.00;;;;;;1589240;74;1519;-60
2023/11/07 05:22:17;;;;;;;;;;;20.50;63.00;;;;;;1582581;74;1917;-60
2023/11/07 05:24:19;;;;;;;;;;;20.50;63.90;;;;;;1582271;74;787;-60
2023/11/07 05:26:22;;;;;;;;;;;20.50;64.00;;;;;;1572173;74;928;-61
2023/11/07 05:28:24;;;;;;;;;;;20.50;64.20;;;;;;1579771;74;687;-60
2023/11/07 05:30:26;;;;;;;;;;;20.50;64.20;;;;;;1582443;74;681;-61
2023/11/07 05:32:28;;;;;;;;;;;20.50;64.30;;;;;;1581219;74;1159;-60
2023/11/07 05:34:30;;;;;;;;;;;20.50;64.20;;;;;;1585506;73;1347;-60
2023/11/07 05:36:32;;;;;;;;;;;20.40;64.20;;;;;;1584995;74;671;-60
2023/11/07 05:38:34;;;;;;;;;;;20.50;64.30;;;;;;1586671;74;782;-60
2023/11/07 05:40:36;;;;;;;;;;;20.40;64.20;;;;;;1579998;73;746;-61
2023/11/07 05:42:39;;;;;;;;;;;20.50;64.40;;;;;;1585370;74;1931;-60
2023/11/07 05:44:42;;;;;;;;;;;20.50;64.30;;;;;;1578023;74;708;-60
2023/11/07 05:46:43;;;;;;;;;;;20.50;64.10;;;;;;1582902;74;756;-60
2023/11/07 05:48:45;;;;;;;;;;;20.50;64.10;;;;;;1581044;74;1515;-60
2023/11/07 05:50:47;;;;;;;;;;;20.50;64.00;;;;;;1583658;74;775;-60
2023/11/07 05:52:49;;;;;;;;;;;20.50;64.40;;;;;;1582910;74;1131;-59
2023/11/07 05:54:51;;;;;;;;;;;20.50;64.10;;;;;;1575315;74;749;-60
2023/11/07 05:56:53;;;;;;;;;;;20.40;63.90;;;;;;1586663;74;770;-60
2023/11/07 05:58:55;;;;;;;;;;;20.50;63.40;;;;;;1578638;74;681;-61
2023/11/07 06:00:57;;;;;;;;;;;20.50;63.90;;;;;;1581628;74;736;-61
2023/11/07 06:02:59;;;;;;;;;;;20.50;63.80;;;;;;1581142;74;1945;-59
2023/11/07 06:05:01;;;;;;;;;;;20.50;63.80;;;;;;1588485;74;842;-59
2023/11/07 06:07:03;;;;;;;;;;;20.50;63.80;;;;;;1581584;74;777;-58
2023/11/07 06:09:04;;;;;;;;;;;20.60;63.40;;;;;;1580721;73;778;-60
2023/11/07 06:11:06;;;;;;;;;;;20.50;63.30;;;;;;1590954;73;672;-58
2023/11/07 06:13:08;;;;;;;;;;;20.50;63.30;;;;;;1578003;74;1123;-60
2023/11/07 06:15:10;;;;;;;;;;;20.50;63.40;;;;;;1583937;74;740;-58
2023/11/07 06:17:12;;;;;;;;;;;20.50;63.30;;;;;;1586770;74;1528;-61
2023/11/07 06:19:14;;;;;;;;;;;20.40;63.20;;;;;;1578049;74;788;-61
2023/11/07 06:21:16;;;;;;;;;;;20.50;63.30;;;;;;1582779;74;738;-60
2023/11/07 06:23:18;;;;;;;;;;;20.40;63.20;;;;;;1578972;73;1964;-58
2023/11/07 06:25:21;;;;;;;;;;;20.50;63.30;;;;;;1590240;74;643;-60
2023/11/07 06:27:22;;;;;;;;;;;20.50;63.20;;;;;;1537813;75;863;-60
2023/11/07 06:29:25;;;;;;;;;;;20.50;63.20;;;;;;1540869;75;678;-58
2023/11/07 06:31:27;;;;;;;;;;;20.50;63.00;;;;;;1542762;75;1524;-59
2023/11/07 06:33:29;;;;;;;;;;;20.50;63.10;;;;;;1525497;76;733;-59
2023/11/07 06:35:31;;;;;;;;;;;20.50;63.00;;;;;;1545803;76;735;-59
2023/11/07 06:37:33;;;;;;;;;;;20.50;63.00;;;;;;1540953;75;725;-59
2023/11/07 06:39:35;;;;;;;;;;;20.40;62.90;;;;;;1521995;77;739;-59
2023/11/07 06:41:38;;;;;;;;;;;20.50;62.90;;;;;;1588277;73;1110;-59
2023/11/07 06:43:41;;;;;;;;;;;20.50;62.90;;;;;;1582284;74;1874;-60
2023/11/07 06:45:43;;;;;;;;;;;20.50;62.90;;;;;;1579766;74;1529;-60
2023/11/07 06:47:45;;;;;;;;;;;20.40;62.70;;;;;;1578654;74;803;-60
2023/11/07 06:49:49;;;;;;;;;;;20.40;62.70;;;;;;1586038;74;640;-61
2023/11/07 06:51:51;;;;;;;;;;;20.50;62.80;;;;;;1585380;74;1116;-61
2023/11/07 06:53:53;;;;;;;;;;;20.40;62.70;;;;;;1580168;74;705;-59
2023/11/07 06:55:55;;;;;;;;;;;20.40;62.80;;;;;;1576085;74;755;-60
2023/11/07 06:57:57;;;;;;;;;;;20.50;62.80;;;;;;1570064;74;725;-60
2023/11/07 06:59:59;;;;;;;;;;;20.40;62.70;;;;;;1583031;74;1558;-60
2023/11/07 07:02:00;;;;;;;;;;;20.40;62.70;;;;;;1570479;74;1943;-60
2023/11/07 07:04:03;;;;;;;;;;;20.40;62.70;;;;;;1576851;74;728;-60
2023/11/07 07:06:06;;;;;;;;;;;20.40;62.60;;;;;;1573376;74;712;-60
2023/11/07 07:08:08;;;;;;;;;;;20.40;62.60;;;;;;1581099;74;800;-61
2023/11/07 07:10:10;;;;;;;;;;;20.30;62.60;;;;;;1571769;73;724;-61
2023/11/07 07:12:12;;;;;;;;;;;20.40;62.60;;;;;;1568622;74;1148;-60
2023/11/07 07:14:15;;;;;;;;;;;20.40;62.60;;;;;;1583270;74;1582;-60
2023/11/07 07:16:18;;;;;;;;;;;20.40;62.60;;;;;;1576954;74;709;-60
2023/11/07 07:18:22;;;;;;;;;;;20.40;62.60;;;;;;1578527;74;742;-60
2023/11/07 07:20:23;;;;;;;;;;;20.40;62.60;;;;;;1569423;74;739;-59
2023/11/07 07:22:28;;;;;;;;;;;20.30;62.60;;;;;;1575790;74;1939;-60
2023/11/07 07:24:31;;;;;;;;;;;20.30;62.50;;;;;;1578986;74;791;-59
2023/11/07 07:26:34;;;;;;;;;;;20.40;62.60;;;;;;1575944;74;1522;-57
2023/11/07 07:28:39;;;;;;;;;;;20.30;62.50;;;;;;1571975;74;735;-60
2023/11/07 07:30:43;;;;;;;;;;;20.40;62.50;;;;;;1582791;74;837;-59
2023/11/07 07:32:45;;;;;;;;;;;20.30;62.50;;;;;;1583553;74;1635;-59
2023/11/07 07:34:47;;;;;;;;;;;20.30;62.50;;;;;;1575977;74;690;-59
2023/11/07 07:36:50;;;;;;;;;;;20.30;62.40;;;;;;1575268;74;733;-57
2023/11/07 07:38:52;;;;;;;;;;;20.30;62.40;;;;;;1575139;74;835;-58
2023/11/07 07:40:54;;;;;;;;;;;20.30;62.40;;;;;;1578625;74;1528;-59
2023/11/07 07:42:58;;;;;;;;;;;20.30;62.40;;;;;;1575812;73;1934;-59
2023/11/07 07:45:00;;;;;;;;;;;20.30;62.30;;;;;;1580935;74;1482;-58
2023/11/07 07:47:02;;;;;;;;;;;20.30;62.30;;;;;;1579222;74;681;-58
2023/11/07 07:49:10;;;;;;;;;;;20.30;62.30;;;;;;1583033;74;760;-59
2023/11/07 07:51:07;;;;;;;;;;;20.30;62.30;;;;;;1582433;74;1678;-59
2023/11/07 07:53:10;;;;;;;;;;;20.30;62.30;;;;;;1583544;74;1096;-59
2023/11/07 07:55:12;;;;;;;;;;;20.30;62.20;;;;;;1582759;74;1548;-58
2023/11/07 07:57:17;;;;;;;;;;;20.30;62.30;;;;;;1585868;74;782;-59
2023/11/07 07:59:23;;;;;;;;;;;20.30;62.20;;;;;;1592673;74;1733;-60
2023/11/07 08:01:21;;;;;;;;;;;20.30;62.20;;;;;;1571839;74;1484;-59
2023/11/07 08:03:23;;;;;;;;;;;20.30;62.10;;;;;;1586482;74;1914;-59
2023/11/07 08:05:27;;;;;;;;;;;20.30;62.10;;;;;;1573952;74;766;-60
2023/11/07 08:07:29;;;;;;;;;;;20.30;62.10;;;;;;1582954;74;1449;-60
2023/11/07 08:09:31;;;;;;;;;;;20.30;62.00;;;;;;1584395;74;1346;-60
2023/11/07 08:11:32;;;;;;;;;;;20.30;62.00;;;;;;1586300;73;1132;-58
2023/11/07 08:13:35;;;;;;;;;;;20.30;62.00;;;;;;1539319;75;721;-59
2023/11/07 08:15:37;;;;;;;;;;;20.30;62.00;;;;;;1516718;76;852;-58
2023/11/07 08:17:39;;;;;;;;;;;20.30;62.00;;;;;;1519535;77;661;-59
2023/11/07 08:19:41;;;;;;;;;;;20.30;62.00;;;;;;1559411;75;762;-58
2023/11/07 08:21:43;;;;;;;;;;;20.30;62.00;;;;;;1518064;77;1148;-58
2023/11/07 08:23:45;;;;;;;;;;;20.30;62.00;;;;;;1525945;76;1929;-60
2023/11/07 08:25:47;;;;;;;;;;;20.20;61.80;;;;;;1519478;76;796;-59
2023/11/07 08:27:49;;;;;;;;;;;20.20;61.80;;;;;;1544819;75;871;-59
2023/11/07 08:29:51;;;;;;;;;;;20.20;61.80;;;;;;1531488;77;692;-58
2023/11/07 08:31:53;;;;;;;;;;;20.30;61.90;;;;;;1525022;76;1183;-59
2023/11/07 08:33:56;;;;;;;;;;;20.20;61.80;;;;;;1539593;75;687;-58
2023/11/07 08:35:57;;;;;;;;;;;20.30;61.90;;;;;;1572729;74;730;-58
2023/11/07 08:38:00;;;;;;;;;;;20.20;61.80;;;;;;1545931;75;1525;-59
2023/11/07 08:40:05;;;;;;;;;;;20.30;61.90;;;;;;1550575;75;760;-58
2023/11/07 08:42:06;;;;;;;;;;;20.30;61.80;;;;;;1547101;76;1689;-58
2023/11/07 08:44:09;;;;;;;;;;;20.20;61.70;;;;;;1538792;75;1950;-59
2023/11/07 08:46:11;;;;;;;;;;;20.30;61.80;;;;;;1516746;77;730;-59
2023/11/07 08:48:12;;;;;;;;;;;20.20;61.60;;;;;;1543823;76;817;-58
2023/11/07 08:50:14;;;;;;;;;;;20.20;61.70;;;;;;1545859;76;733;-59
2023/11/07 08:52:16;;;;;;;;;;;20.20;61.60;;;;;;1544177;76;1570;-60
2023/11/07 08:54:18;;;;;;;;;;;20.30;61.70;;;;;;1544430;76;728;-58
2023/11/07 08:56:24;;;;;;;;;;;20.20;61.60;;;;;;1576548;74;744;-59
2023/11/07 08:58:25;;;;;;;;;;;20.20;61.60;;;;;;1577761;74;1986;-58
2023/11/07 09:00:27;;;;;;;;;;;20.20;61.60;;;;;;1578919;74;786;-60
2023/11/07 09:02:30;;;;;;;;;;;20.30;61.70;;;;;;1548873;75;1150;-60
2023/11/07 09:04:32;;;;;;;;;;;20.20;61.60;;;;;;1547872;75;762;-59
2023/11/07 09:06:35;;;;;;;;;;;20.20;61.60;;;;;;1521323;77;1533;-58
2023/11/07 09:08:37;;;;;;;;;;;20.30;61.60;;;;;;1513770;77;826;-60
2023/11/07 09:10:39;;;;;;;;;;;20.20;61.50;;;;;;1521017;77;780;-59
2023/11/07 09:12:41;;;;;;;;;;;20.20;61.50;;;;;;1514737;77;1154;-59
2023/11/07 09:14:43;;;;;;;;;;;20.20;61.50;;;;;;1542178;75;714;-60
2023/11/07 09:16:46;;;;;;;;;;;20.20;61.50;;;;;;1542504;76;635;-59
2023/11/07 09:18:49;;;;;;;;;;;20.20;61.50;;;;;;1543152;75;737;-58
2023/11/07 09:20:51;;;;;;;;;;;20.20;61.50;;;;;;1585842;74;1530;-58
2023/11/07 09:22:53;;;;;;;;;;;20.20;61.40;;;;;;1578587;74;1954;-57
2023/11/07 09:24:55;;;;;;;;;;;20.20;61.40;;;;;;1583922;74;775;-58
2023/11/07 09:26:57;;;;;;;;;;;20.20;61.40;;;;;;1580584;74;767;-58
2023/11/07 09:28:59;;;;;;;;;;;20.20;61.50;;;;;;1586584;74;756;-58
2023/11/07 09:31:02;;;;;;;;;;;20.20;61.50;;;;;;1584089;74;678;-58
2023/11/07 09:33:06;;;;;;;;;;;20.20;61.40;;;;;;1582963;74;1167;-59
2023/11/07 09:35:07;;;;;;;;;;;20.20;61.40;;;;;;1576334;74;1680;-59
2023/11/07 09:37:09;;;;;;;;;;;20.20;61.40;;;;;;1574369;74;891;-58
2023/11/07 09:39:11;;;;;;;;;;;20.30;61.50;;;;;;1579808;74;713;-59
2023/11/07 09:41:16;;;;;;;;;;;20.20;61.30;;;;;;1578079;73;725;-58
2023/11/07 09:43:18;;;;;;;;;;;20.20;61.30;;;;;;1580367;74;1925;-59
2023/11/07 09:45:21;;;;;;;;;;;20.20;61.40;;;;;;1577485;74;722;-58
2023/11/07 09:47:23;;;;;;;;;;;20.20;61.30;;;;;;1584996;74;1317;-59
2023/11/07 09:49:26;;;;;;;;;;;20.20;61.30;;;;;;1586098;74;712;-59
2023/11/07 09:51:28;;;;;;;;;;;20.20;61.30;;;;;;1574483;74;1081;-59
2023/11/07 09:53:30;;;;;;;;;;;20.20;61.30;;;;;;1583058;74;747;-59
2023/11/07 09:55:32;;;;;;;;;;;20.20;61.30;;;;;;1582094;74;733;-58
2023/11/07 09:57:35;;;;;;;;;;;20.20;61.20;;;;;;1580652;74;765;-59
2023/11/07 09:59:49;;;;;;;;;;;20.20;61.30;;;;;;1575025;74;757;-58
2023/11/07 10:01:51;;;;;;;;;;;20.20;61.20;;;;;;1585824;74;1142;-58
2023/11/07 10:03:53;;;;;;;;;;;20.20;61.20;;;;;;1585216;74;1926;-59
2023/11/07 10:05:58;;;;;;;;;;;20.20;61.20;;;;;;1580142;74;736;-60
2023/11/07 10:07:59;;;;;;;;;;;20.20;61.20;;;;;;1548834;74;1520;-59
2023/11/07 10:10:05;;;;;;;;;;;20.20;61.20;;;;;;1582249;74;720;-59
2023/11/07 10:12:05;;;;;;;;;;;20.20;61.10;;;;;;1581346;74;1259;-57
2023/11/07 10:14:08;;;;;;;;;;;20.20;61.10;;;;;;1578205;74;755;-58
2023/11/07 10:16:10;;;;;;;;;;;20.20;61.10;;;;;;1587245;74;1182;-60
2023/11/07 10:18:12;;;;;;;;;;;20.20;61.10;;;;;;1585712;74;721;-58
2023/11/07 10:20:14;;;;;;;;;;;20.20;61.00;;;;;;1578456;74;711;-59
2023/11/07 10:22:16;;;;;;;;;;;20.20;61.10;;;;;;1585045;74;1153;-59
2023/11/07 10:24:18;;;;;;;;;;;20.20;61.00;;;;;;1579530;74;1930;-60
2023/11/07 10:26:20;;;;;;;;;;;20.10;61.00;;;;;;1589476;74;842;-59
2023/11/07 10:28:22;;;;;;;;;;;20.10;61.00;;;;;;1574746;74;784;-58
2023/11/07 10:30:26;;;;;;;;;;;20.10;61.00;;;;;;1572727;74;1550;-58
2023/11/07 10:32:29;;;;;;;;;;;20.10;61.00;;;;;;1574476;73;1930;-60
2023/11/07 10:34:31;;;;;;;;;;;20.20;61.00;;;;;;1574555;74;1586;-57
2023/11/07 10:36:35;;;;;;;;;;;20.20;61.00;;;;;;1580364;74;800;-59
2023/11/07 10:38:39;;;;;;;;;;;20.10;61.00;;;;;;1566322;74;1844;-57
2023/11/07 10:40:41;;;;;;;;;;;20.10;60.90;;;;;;1582148;74;770;-59
2023/11/07 10:42:47;;;;;;;;;;;20.20;60.90;;;;;;1569299;74;1110;-59
2023/11/07 10:44:50;;;;;;;;;;;20.10;60.90;;;;;;1581115;74;1907;-60
2023/11/07 10:46:53;;;;;;;;;;;20.10;60.90;;;;;;1582903;74;1452;-59
2023/11/07 10:48:55;;;;;;;;;;;20.10;60.80;;;;;;1580037;74;693;-59
2023/11/07 10:51:03;;;;;;;;;;;20.10;60.80;;;;;;1585307;73;712;-59
2023/11/07 10:53:04;;;;;;;;;;;20.10;60.80;;;;;;1586782;74;1668;-58
2023/11/07 10:55:06;;;;;;;;;;;20.20;60.90;;;;;;1578380;74;715;-59
2023/11/07 10:57:10;;;;;;;;;;;20.20;60.80;;;;;;1544949;76;774;-59
2023/11/07 10:59:15;;;;;;;;;;;20.10;60.80;;;;;;1582613;74;1584;-59
2023/11/07 11:01:16;;;;;;;;;;;20.10;60.80;;;;;;1580324;74;1604;-60
2023/11/07 11:03:18;;;;;;;;;;;20.20;60.80;;;;;;1550939;75;1960;-59
2023/11/07 11:05:20;;;;;;;;;;;20.20;60.80;;;;;;1576240;74;731;-59
2023/11/07 11:07:22;;;;;;;;;;;20.20;60.80;;;;;;1582241;74;778;-59
2023/11/07 11:09:25;;;;;;;;;;;20.20;60.80;;;;;;1575509;74;740;-59
2023/11/07 11:11:26;;;;;;;;;;;20.20;60.80;;;;;;1577349;74;1140;-58
2023/11/07 11:13:29;;;;;;;;;;;20.10;60.80;;;;;;1580441;74;1684;-58
2023/11/07 11:15:34;;;;;;;;;;;20.20;60.70;;;;;;1577457;74;657;-59
2023/11/07 11:17:38;;;;;;;;;;;20.10;60.70;;;;;;1578316;74;1484;-59
2023/11/07 11:19:44;;;;;;;;;;;20.20;60.70;;;;;;1581477;74;882;-58
2023/11/07 11:21:47;;;;;;;;;;;20.20;60.70;;;;;;1587427;74;1109;-58
2023/11/07 11:24:00;;;;;;;;;;;20.20;60.70;;;;;;1584842;74;1942;-59
2023/11/07 11:26:20;;;;;;;;;;;20.20;60.70;;;;;;1585028;74;1947;-59
2023/11/07 11:28:24;;;;;;;;;;;20.20;60.70;;;;;;1585448;74;711;-60
2023/11/07 11:30:28;;;;;;;;;;;20.20;60.70;;;;;;1574255;74;1734;-60
2023/11/07 11:32:36;;;;;;;;;;;20.10;60.70;;;;;;1582854;74;1154;-59
2023/11/07 11:34:35;;;;;;;;;;;20.20;60.70;;;;;;1569390;74;1423;-59
2023/11/07 11:36:40;;;;;;;;;;;20.20;60.70;;;;;;1583753;73;869;-59
2023/11/07 11:38:42;;;;;;;;;;;20.20;60.60;;;;;;1588376;74;1698;-60
2023/11/07 11:40:57;;;;;;;;;;;20.20;60.60;;;;;;1580607;74;1525;-58
2023/11/07 11:43:06;;;;;;;;;;;20.20;60.60;;;;;;1551770;75;1182;-58
2023/11/07 11:45:15;;;;;;;;;;;20.10;60.60;;;;;;1576887;74;1910;-59
2023/11/07 11:47:37;;;;;;;;;;;20.10;60.60;;;;;;1563025;74;1541;-59
2023/11/07 11:49:42;;;;;;;;;;;20.20;60.60;;;;;;1576504;74;847;-58
2023/11/07 11:51:48;;;;;;;;;;;20.10;60.60;;;;;;1578985;74;1508;-59
2023/11/07 11:53:50;;;;;;;;;;;20.20;60.60;;;;;;1579584;74;1517;-59
2023/11/07 11:56:04;;;;;;;;;;;20.20;60.60;;;;;;1589385;74;796;-60
2023/11/07 11:58:20;;;;;;;;;;;20.10;60.60;;;;;;1581374;74;726;-60
2023/11/07 12:00:21;;;;;;;;;;;20.20;60.60;;;;;;1581539;74;1719;-59
2023/11/07 12:02:36;;;;;;;;;;;20.10;60.60;;;;;;1587948;74;1148;-59
2023/11/07 12:04:40;;;;;;;;;;;20.10;60.50;;;;;;1572896;74;1920;-58
2023/11/07 12:07:00;;;;;;;;;;;20.10;60.50;;;;;;1580717;74;713;-57
2023/11/07 12:09:02;;;;;;;;;;;20.20;60.50;;;;;;1575056;74;1548;-60
2023/11/07 12:11:04;;;;;;;;;;;20.10;60.50;;;;;;1588026;74;722;-58